sensor_id;sensor_type;location;lat;lon;timestamp;P1;P2;P0
65360;PMS5003;51958;55.018;73.536;2024-01-30T05:49:11;15.33;12.67;7.00
65360;PMS5003;51958;55.018;73.536;2024-01-30T06:01:15;24.50;20.00;12.00
65360;PMS5003;51958;55.018;73.536;2024-01-30T06:04:16;31.00;24.00;15.00
65360;PMS5003;51958;55.018;73.536;2024-01-30T06:07:17;32.50;25.00;16.00
65360;PMS5003;51958;55.018;73.536;2024-01-30T06:10:19;31.00;24.00;16.00
65360;PMS5003;51958;55.018;73.536;2024-01-30T06:13:20;32.00;24.00;16.00
65360;PMS5003;51958;55.018;73.536;2024-01-30T06:16:21;30.00;24.00;15.00
65360;PMS5003;51958;55.018;73.536;2024-01-30T06:19:23;31.00;24.00;15.00
65360;PMS5003;51958;55.018;73.536;2024-01-30T06:22:24;31.00;24.00;14.00
65360;PMS5003;51958;55.018;73.536;2024-01-30T06:25:25;32.00;25.00;16.00
65360;PMS5003;51958;55.018;73.536;2024-01-30T06:28:26;32.33;24.33;15.33
65360;PMS5003;51958;55.018;73.536;2024-01-30T06:31:31;31.00;25.00;14.33
65360;PMS5003;51958;55.018;73.536;2024-01-30T06:34:35;28.00;23.00;13.00
65360;PMS5003;51958;55.018;73.536;2024-01-30T06:37:36;29.33;25.00;14.00
65360;PMS5003;51958;55.018;73.536;2024-01-30T06:40:37;29.00;24.00;14.00
65360;PMS5003;51958;55.018;73.536;2024-01-30T06:43:39;27.00;22.67;15.00
65360;PMS5003;51958;55.018;73.536;2024-01-30T06:46:40;29.00;23.00;14.00
65360;PMS5003;51958;55.018;73.536;2024-01-30T06:52:42;29.00;23.00;14.00
65360;PMS5003;51958;55.018;73.536;2024-01-30T06:55:45;29.00;23.00;14.33
65360;PMS5003;51958;55.018;73.536;2024-01-30T06:58:47;29.00;23.00;15.00
65360;PMS5003;51958;55.018;73.536;2024-01-30T07:01:50;27.00;22.33;14.00
65360;PMS5003;51958;55.018;73.536;2024-01-30T07:04:51;25.67;21.00;14.00
65360;PMS5003;51958;55.018;73.536;2024-01-30T07:07:53;25.00;22.00;13.00
65360;PMS5003;51958;55.018;73.536;2024-01-30T07:10:54;25.00;22.00;14.00
65360;PMS5003;51958;55.018;73.536;2024-01-30T07:13:56;25.00;22.00;14.00
65360;PMS5003;51958;55.018;73.536;2024-01-30T07:16:58;24.67;21.00;14.33
65360;PMS5003;51958;55.018;73.536;2024-01-30T07:19:59;26.33;23.00;14.33
65360;PMS5003;51958;55.018;73.536;2024-01-30T07:23:05;29.00;23.00;15.00
65360;PMS5003;51958;55.018;73.536;2024-01-30T07:26:07;26.00;20.00;13.00
65360;PMS5003;51958;55.018;73.536;2024-01-30T07:29:09;25.33;19.33;13.00
65360;PMS5003;51958;55.018;73.536;2024-01-30T07:32:10;27.00;21.00;13.00
65360;PMS5003;51958;55.018;73.536;2024-01-30T07:35:16;25.33;21.00;13.67
65360;PMS5003;51958;55.018;73.536;2024-01-30T07:38:17;29.67;23.33;15.00
65360;PMS5003;51958;55.018;73.536;2024-01-30T07:41:18;29.00;23.00;15.00
65360;PMS5003;51958;55.018;73.536;2024-01-30T07:44:22;29.50;23.50;14.50
65360;PMS5003;51958;55.018;73.536;2024-01-30T07:47:24;27.33;22.00;13.00
65360;PMS5003;51958;55.018;73.536;2024-01-30T07:50:25;24.67;21.00;13.00
65360;PMS5003;51958;55.018;73.536;2024-01-30T07:53:26;23.67;20.00;13.00
65360;PMS5003;51958;55.018;73.536;2024-01-30T07:56:28;23.33;19.67;12.33
65360;PMS5003;51958;55.018;73.536;2024-01-30T07:59:33;23.00;20.00;13.00
65360;PMS5003;51958;55.018;73.536;2024-01-30T08:02:34;26.33;22.33;13.33
65360;PMS5003;51958;55.018;73.536;2024-01-30T08:05:35;27.33;22.33;14.00
65360;PMS5003;51958;55.018;73.536;2024-01-30T08:08:38;26.00;21.00;14.00
65360;PMS5003;51958;55.018;73.536;2024-01-30T08:11:39;23.00;20.00;12.00
65360;PMS5003;51958;55.018;73.536;2024-01-30T08:14:40;21.00;18.00;12.00
65360;PMS5003;51958;55.018;73.536;2024-01-30T08:17:42;21.00;17.00;11.00
65360;PMS5003;51958;55.018;73.536;2024-01-30T08:20:45;20.00;16.33;10.00
65360;PMS5003;51958;55.018;73.536;2024-01-30T08:23:46;19.67;18.00;10.00
65360;PMS5003;51958;55.018;73.536;2024-01-30T08:26:47;20.33;18.67;10.00
65360;PMS5003;51958;55.018;73.536;2024-01-30T08:29:48;23.00;20.00;12.00
65360;PMS5003;51958;55.018;73.536;2024-01-30T08:32:52;24.67;21.00;13.00
65360;PMS5003;51958;55.018;73.536;2024-01-30T08:35:53;24.00;21.00;13.00
65360;PMS5003;51958;55.018;73.536;2024-01-30T08:38:54;22.00;20.00;13.00
65360;PMS5003;51958;55.018;73.536;2024-01-30T08:41:55;22.00;19.00;13.00
65360;PMS5003;51958;55.018;73.536;2024-01-30T08:44:56;25.33;21.00;14.33
65360;PMS5003;51958;55.018;73.536;2024-01-30T08:47:58;24.33;20.00;13.00
65360;PMS5003;51958;55.018;73.536;2024-01-30T08:51:00;22.33;19.00;12.00
65360;PMS5003;51958;55.018;73.536;2024-01-30T08:54:02;23.67;20.00;12.00
65360;PMS5003;51958;55.018;73.536;2024-01-30T08:57:03;21.00;17.00;12.00
65360;PMS5003;51958;55.018;73.536;2024-01-30T09:00:05;19.67;16.00;11.67
65360;PMS5003;51958;55.018;73.536;2024-01-30T09:03:07;20.00;17.00;11.00
65360;PMS5003;51958;55.018;73.536;2024-01-30T09:06:09;20.00;18.67;12.00
65360;PMS5003;51958;55.018;73.536;2024-01-30T09:09:10;19.00;18.00;12.33
65360;PMS5003;51958;55.018;73.536;2024-01-30T09:12:11;18.00;17.00;12.00
65360;PMS5003;51958;55.018;73.536;2024-01-30T09:15:12;18.67;16.67;10.00
65360;PMS5003;51958;55.018;73.536;2024-01-30T09:18:13;18.33;17.00;9.67
65360;PMS5003;51958;55.018;73.536;2024-01-30T09:21:14;18.67;17.67;11.00
65360;PMS5003;51958;55.018;73.536;2024-01-30T09:24:16;19.00;18.00;10.00
65360;PMS5003;51958;55.018;73.536;2024-01-30T09:27:18;18.33;14.33;10.00
65360;PMS5003;51958;55.018;73.536;2024-01-30T09:30:19;18.00;16.00;8.00
65360;PMS5003;51958;55.018;73.536;2024-01-30T09:33:20;18.33;15.00;8.00
65360;PMS5003;51958;55.018;73.536;2024-01-30T09:36:21;17.00;16.00;9.00
65360;PMS5003;51958;55.018;73.536;2024-01-30T09:39:22;17.00;16.00;9.00
65360;PMS5003;51958;55.018;73.536;2024-01-30T09:45:26;18.00;16.00;8.00
65360;PMS5003;51958;55.018;73.536;2024-01-30T09:48:27;18.33;15.00;7.00
65360;PMS5003;51958;55.018;73.536;2024-01-30T09:51:29;19.00;16.00;8.00
65360;PMS5003;51958;55.018;73.536;2024-01-30T09:54:33;15.67;14.00;6.00
65360;PMS5003;51958;55.018;73.536;2024-01-30T09:57:36;15.00;14.00;6.00
65360;PMS5003;51958;55.018;73.536;2024-01-30T10:00:37;14.67;14.00;6.00
65360;PMS5003;51958;55.018;73.536;2024-01-30T10:03:39;18.33;16.00;7.33
65360;PMS5003;51958;55.018;73.536;2024-01-30T10:06:41;18.00;16.00;8.00
65360;PMS5003;51958;55.018;73.536;2024-01-30T10:09:43;17.33;14.00;6.00
65360;PMS5003;51958;55.018;73.536;2024-01-30T10:12:44;18.00;14.67;7.00
65360;PMS5003;51958;55.018;73.536;2024-01-30T10:15:47;16.67;14.00;7.00
65360;PMS5003;51958;55.018;73.536;2024-01-30T10:18:48;18.00;16.00;8.00
65360;PMS5003;51958;55.018;73.536;2024-01-30T10:21:49;18.00;14.00;6.67
65360;PMS5003;51958;55.018;73.536;2024-01-30T10:24:50;18.00;14.67;7.00
65360;PMS5003;51958;55.018;73.536;2024-01-30T10:27:52;16.00;14.67;6.00
65360;PMS5003;51958;55.018;73.536;2024-01-30T10:30:58;17.00;14.67;8.00
65360;PMS5003;51958;55.018;73.536;2024-01-30T10:34:00;17.67;15.33;7.00
65360;PMS5003;51958;55.018;73.536;2024-01-30T10:37:11;18.00;16.00;6.00
65360;PMS5003;51958;55.018;73.536;2024-01-30T10:40:18;16.00;15.00;5.00
65360;PMS5003;51958;55.018;73.536;2024-01-30T10:43:22;16.00;14.00;6.00
65360;PMS5003;51958;55.018;73.536;2024-01-30T10:46:24;14.00;12.00;4.00
65360;PMS5003;51958;55.018;73.536;2024-01-30T10:49:28;14.50;14.00;6.00
65360;PMS5003;51958;55.018;73.536;2024-01-30T10:52:31;16.00;14.00;6.00
65360;PMS5003;51958;55.018;73.536;2024-01-30T10:55:33;18.00;15.00;8.00
65360;PMS5003;51958;55.018;73.536;2024-01-30T10:58:39;15.00;14.50;6.00
65360;PMS5003;51958;55.018;73.536;2024-01-30T11:07:45;11.00;11.00;3.00
65360;PMS5003;51958;55.018;73.536;2024-01-30T11:10:46;11.00;9.00;3.00
65360;PMS5003;51958;55.018;73.536;2024-01-30T11:16:59;9.00;8.00;3.00
65360;PMS5003;51958;55.018;73.536;2024-01-30T11:23:01;11.00;9.00;5.00
